Hendrik Potgieter Airport


Codes: FABO/
Name: Hendrik Potgieter Airport
City: Bothaville
Country: South Africa
Elevation: 4236 ft.

Photos at Hendrik Potgieter Airport


   Photos courtesy of SpottingLog. You can add your own sightings and photos by signing up for a free trial today.



No photos found.

Weather at Hendrik Potgieter Airport


Time (UTC)DescriptionTempratureWindCloud coverageVisibilityPressureHumidity
17-Jun-2024 06:00Clear Sky9°C7 mph, NE0%10000m1026hPa45%
17-Jun-2024 09:00Clear Sky12°C11 mph, N0%10000m1025hPa44%
17-Jun-2024 12:00Clear Sky17°C11 mph, NW0%10000m1021hPa34%
17-Jun-2024 15:00Clear Sky18°C9 mph, NW3%10000m1017hPa35%
17-Jun-2024 18:00Clear Sky14°C7 mph, N4%10000m1020hPa49%
17-Jun-2024 21:00Clear Sky12°C7 mph, N2%10000m1021hPa57%
18-Jun-2024 00:00Clear Sky11°C7 mph, N1%10000m1019hPa63%
18-Jun-2024 03:00Clear Sky10°C7 mph, N0%10000m1019hPa66%
18-Jun-2024 06:00Clear Sky10°C2 mph, SW0%10000m1021hPa67%
18-Jun-2024 09:00Clear Sky19°C11 mph, NW0%10000m1019hPa35%
18-Jun-2024 12:00Clear Sky22°C13 mph, W0%10000m1015hPa19%
18-Jun-2024 15:00Clear Sky19°C7 mph, W0%10000m1016hPa21%
18-Jun-2024 18:00Clear Sky14°C4 mph, W0%10000m1018hPa27%
18-Jun-2024 21:00Clear Sky11°C4 mph, W0%10000m1020hPa31%
19-Jun-2024 00:00Clear Sky9°C4 mph, W0%10000m1020hPa33%
19-Jun-2024 03:00Clear Sky8°C2 mph, W0%10000m1020hPa36%
19-Jun-2024 06:00Clear Sky9°C2 mph, NW0%10000m1022hPa35%
19-Jun-2024 09:00Clear Sky17°C4 mph, W0%10000m1021hPa20%
19-Jun-2024 12:00Clear Sky20°C7 mph, W0%10000m1018hPa14%
19-Jun-2024 15:00Clear Sky17°C4 mph, SW0%10000m1018hPa18%
19-Jun-2024 18:00Clear Sky12°C4 mph, S0%10000m1021hPa23%
19-Jun-2024 21:00Clear Sky10°C4 mph, E0%10000m1023hPa26%
20-Jun-2024 00:00Clear Sky9°C7 mph, NE0%10000m1023hPa27%
20-Jun-2024 03:00Clear Sky8°C7 mph, E0%10000m1024hPa32%
20-Jun-2024 06:00Clear Sky8°C9 mph, NE0%10000m1025hPa34%
20-Jun-2024 09:00Clear Sky19°C11 mph, NE1%10000m1023hPa19%
20-Jun-2024 12:00Clear Sky23°C9 mph, N2%10000m1019hPa13%
20-Jun-2024 15:00Few Clouds20°C7 mph, N11%10000m1019hPa17%
20-Jun-2024 18:00Clear Sky15°C9 mph, N9%10000m1023hPa27%
20-Jun-2024 21:00Clear Sky13°C7 mph, N7%10000m1024hPa32%
21-Jun-2024 00:00Few Clouds12°C11 mph, N13%10000m1024hPa46%
21-Jun-2024 03:00Clear Sky11°C11 mph, N10%10000m1025hPa62%
21-Jun-2024 06:00Clear Sky11°C11 mph, NE7%10000m1026hPa69%
21-Jun-2024 09:00Clear Sky19°C13 mph, N9%10000m1024hPa33%
21-Jun-2024 12:00Clear Sky23°C9 mph, N5%10000m1020hPa19%
21-Jun-2024 15:00Clear Sky20°C4 mph, NW0%10000m1020hPa25%
21-Jun-2024 18:00Clear Sky15°C7 mph, N0%10000m1023hPa38%
21-Jun-2024 21:00Clear Sky13°C7 mph, N0%10000m1024hPa50%
22-Jun-2024 00:00Clear Sky12°C7 mph, N0%10000m1024hPa57%
22-Jun-2024 03:00Clear Sky11°C7 mph, NE1%10000m1025hPa64%